createdAt,value
2018-03-11T00:00:55.848Z,79.90
2018-03-11T00:01:55.789Z,79.50
2018-03-11T00:02:55.732Z,81.50
2018-03-11T00:03:55.670Z,81.10
2018-03-11T00:04:55.611Z,82.70
2018-03-11T00:05:55.552Z,83.20
2018-03-11T00:06:55.496Z,82.70
2018-03-11T00:07:55.436Z,80.50
2018-03-11T00:08:55.375Z,79.40
2018-03-11T00:09:55.312Z,82.80
2018-03-11T00:10:55.254Z,83.30
2018-03-11T00:11:55.196Z,83.10
2018-03-11T00:12:55.138Z,83.80
2018-03-11T00:13:55.078Z,83.20
2018-03-11T00:14:55.017Z,84.60
2018-03-11T00:15:54.959Z,82.50
2018-03-11T00:16:54.899Z,83.70
2018-03-11T00:17:54.839Z,83.00
2018-03-11T00:18:54.778Z,80.70
2018-03-11T00:19:54.722Z,85.70
2018-03-11T00:20:54.663Z,85.00
2018-03-11T00:21:54.601Z,83.80
2018-03-11T00:22:54.542Z,90.50
2018-03-11T00:23:54.482Z,86.70
2018-03-11T00:24:54.420Z,87.40
2018-03-11T00:25:54.360Z,91.40
2018-03-11T00:26:54.300Z,87.10
2018-03-11T00:27:54.242Z,88.00
2018-03-11T00:28:54.182Z,85.60
2018-03-11T00:29:54.141Z,86.70
2018-03-11T00:30:54.062Z,86.50
2018-03-11T00:31:54.002Z,84.70
2018-03-11T00:32:53.942Z,92.70
2018-03-11T00:33:53.888Z,84.60
2018-03-11T00:34:53.823Z,87.80
2018-03-11T00:35:53.764Z,87.20
2018-03-11T00:36:53.704Z,89.20
2018-03-11T00:37:53.643Z,89.20
2018-03-11T00:38:53.586Z,91.10
2018-03-11T00:39:53.527Z,89.50
2018-03-11T00:40:53.464Z,89.60
2018-03-11T00:41:53.406Z,89.40
2018-03-11T00:42:53.344Z,92.10
2018-03-11T00:43:53.286Z,93.90
2018-03-11T00:44:53.225Z,93.70
2018-03-11T00:45:53.168Z,89.40
2018-03-11T00:46:53.101Z,89.80
2018-03-11T00:47:53.045Z,87.80
2018-03-11T00:48:52.984Z,90.00
2018-03-11T00:49:52.924Z,87.00
2018-03-11T00:50:52.869Z,83.10
2018-03-11T00:51:52.806Z,78.70
2018-03-11T00:52:52.746Z,75.70
2018-03-11T00:53:52.698Z,72.90
2018-03-11T00:54:52.626Z,76.20
2018-03-11T00:55:52.567Z,84.00
2018-03-11T00:56:52.508Z,82.60
2018-03-11T00:57:52.447Z,75.20
2018-03-11T00:58:52.388Z,77.10
2018-03-11T00:59:52.328Z,76.70
2018-03-11T01:00:52.266Z,74.20
2018-03-11T01:01:52.206Z,77.10
2018-03-11T01:02:52.147Z,76.80
2018-03-11T01:03:52.088Z,76.70
2018-03-11T01:04:52.027Z,75.60
2018-03-11T01:05:51.973Z,76.50
2018-03-11T01:06:51.909Z,72.70
2018-03-11T01:07:51.847Z,73.10
2018-03-11T01:08:51.786Z,71.70
2018-03-11T01:09:51.726Z,73.50
2018-03-11T01:10:51.670Z,70.90
2018-03-11T01:11:51.609Z,69.40
2018-03-11T01:12:51.547Z,65.10
2018-03-11T01:13:51.488Z,64.00
2018-03-11T01:14:51.427Z,67.30
2018-03-11T01:15:51.368Z,70.00
2018-03-11T01:16:51.307Z,71.50
2018-03-11T01:17:51.247Z,70.50
2018-03-11T01:18:51.194Z,70.00
2018-03-11T01:19:51.128Z,67.50
2018-03-11T01:20:51.067Z,68.50
2018-03-11T01:21:51.010Z,69.30
2018-03-11T01:22:50.948Z,60.30
2018-03-11T01:23:50.888Z,64.00
2018-03-11T01:24:50.829Z,67.10
2018-03-11T01:25:50.771Z,65.60
2018-03-11T01:26:50.707Z,65.00
2018-03-11T01:27:50.651Z,66.70
2018-03-11T01:28:50.589Z,67.30
2018-03-11T01:29:50.528Z,66.00
2018-03-11T01:30:50.470Z,65.40
2018-03-11T01:31:50.414Z,63.70
2018-03-11T01:32:50.351Z,64.50
2018-03-11T01:33:50.290Z,64.20
2018-03-11T01:34:50.227Z,67.90
2018-03-11T01:35:50.196Z,64.90
2018-03-11T01:36:50.108Z,66.10
2018-03-11T01:37:50.046Z,64.20
2018-03-11T01:38:49.986Z,66.20
2018-03-11T01:39:49.928Z,66.00
2018-03-11T01:40:49.866Z,66.30
2018-03-11T01:41:49.809Z,67.30
2018-03-11T01:42:49.747Z,65.90
2018-03-11T01:43:49.772Z,65.10
2018-03-11T01:44:49.624Z,64.30
2018-03-11T01:45:49.569Z,62.80
2018-03-11T01:46:49.506Z,63.10
2018-03-11T01:47:49.447Z,64.30
2018-03-11T01:48:49.385Z,61.30
2018-03-11T01:49:49.329Z,62.90
2018-03-11T01:50:49.272Z,64.80
2018-03-11T01:51:49.213Z,63.10
2018-03-11T01:52:49.146Z,61.40
2018-03-11T01:53:49.090Z,60.50
2018-03-11T01:54:49.029Z,60.40
2018-03-11T01:55:48.966Z,60.60
2018-03-11T01:56:48.908Z,60.30
2018-03-11T01:57:48.844Z,59.20
2018-03-11T01:58:48.785Z,59.60
2018-03-11T01:59:48.725Z,58.80
2018-03-11T02:00:48.663Z,59.60
2018-03-11T02:01:48.604Z,59.50
2018-03-11T02:02:48.545Z,59.40
2018-03-11T02:03:48.483Z,58.80
2018-03-11T02:04:48.421Z,59.00
2018-03-11T02:05:48.361Z,58.20
2018-03-11T02:06:48.302Z,59.90
2018-03-11T02:07:48.241Z,57.70
2018-03-11T02:08:48.182Z,62.00
2018-03-11T02:09:48.122Z,62.30
2018-03-11T02:10:48.059Z,63.20
2018-03-11T02:11:48.000Z,65.70
2018-03-11T02:12:47.939Z,63.60
2018-03-11T02:13:47.889Z,65.10
2018-03-11T02:14:47.825Z,69.20
2018-03-11T02:15:47.759Z,68.80
2018-03-11T02:16:47.695Z,72.20
2018-03-11T02:17:47.639Z,72.80
2018-03-11T02:18:47.578Z,71.60
2018-03-11T02:19:47.517Z,74.70
2018-03-11T02:20:47.454Z,74.60
2018-03-11T02:21:47.396Z,79.30
2018-03-11T02:22:47.334Z,78.60
2018-03-11T02:23:47.276Z,80.10
2018-03-11T02:24:47.214Z,77.30
2018-03-11T02:25:47.157Z,80.80
2018-03-11T02:26:47.103Z,78.20
2018-03-11T02:27:47.034Z,78.70
2018-03-11T02:28:46.972Z,77.40
2018-03-11T02:29:46.913Z,75.50
2018-03-11T02:30:46.853Z,74.60
2018-03-11T02:31:46.798Z,76.30
2018-03-11T02:32:46.731Z,83.10
2018-03-11T02:33:46.670Z,80.20
2018-03-11T02:34:46.615Z,80.80
2018-03-11T02:35:46.551Z,83.80
2018-03-11T02:36:46.494Z,83.20
2018-03-11T02:37:46.430Z,82.80
2018-03-11T02:38:46.371Z,81.70
2018-03-11T02:39:46.311Z,83.50
2018-03-11T02:40:46.249Z,83.40
2018-03-11T02:41:46.192Z,83.20
2018-03-11T02:42:46.128Z,78.00
2018-03-11T02:43:46.070Z,78.80
2018-03-11T02:44:46.007Z,75.30
2018-03-11T02:45:45.947Z,73.20
2018-03-11T02:46:45.888Z,72.50
2018-03-11T02:47:45.833Z,75.30
2018-03-11T02:48:45.768Z,74.50
2018-03-11T02:49:45.707Z,71.30
2018-03-11T02:50:45.648Z,71.10
2018-03-11T02:51:45.588Z,69.20
2018-03-11T02:52:45.534Z,69.90
2018-03-11T02:53:45.469Z,71.50
2018-03-11T02:54:45.405Z,70.40
2018-03-11T02:55:45.348Z,69.70
2018-03-11T02:56:45.285Z,73.40
2018-03-11T02:57:45.224Z,69.70
2018-03-11T02:58:45.166Z,72.30
2018-03-11T02:59:45.105Z,73.10
2018-03-11T03:00:45.044Z,69.40
2018-03-11T03:01:44.984Z,73.00
2018-03-11T03:02:44.924Z,74.30
2018-03-11T03:03:44.865Z,73.90
2018-03-11T03:04:44.805Z,69.40
2018-03-11T03:05:44.745Z,72.00
2018-03-11T03:06:44.682Z,70.30
2018-03-11T03:07:44.625Z,70.60
2018-03-11T03:08:44.563Z,73.10
2018-03-11T03:09:44.504Z,71.10
2018-03-11T03:10:44.448Z,75.80
2018-03-11T03:11:44.385Z,73.20
2018-03-11T03:12:44.322Z,73.30
2018-03-11T03:13:44.267Z,75.00
2018-03-11T03:14:44.206Z,73.70
2018-03-11T03:15:44.144Z,73.50
2018-03-11T03:16:44.087Z,74.20
2018-03-11T03:17:44.024Z,81.00
2018-03-11T03:18:43.963Z,79.50
2018-03-11T03:19:43.904Z,83.70
2018-03-11T03:20:43.842Z,81.90
2018-03-11T03:21:43.781Z,79.80
2018-03-11T03:22:43.723Z,78.60
2018-03-11T03:23:43.665Z,78.00
2018-03-11T03:24:43.602Z,79.50
2018-03-11T03:25:43.548Z,78.30
2018-03-11T03:26:43.488Z,76.50
2018-03-11T03:27:43.423Z,77.70
2018-03-11T03:28:43.364Z,78.50
2018-03-11T03:29:43.306Z,80.50
2018-03-11T03:30:43.250Z,73.60
2018-03-11T03:31:43.185Z,70.60
2018-03-11T03:32:43.122Z,68.80
2018-03-11T03:33:43.063Z,70.30
2018-03-11T03:34:43.003Z,71.70
2018-03-11T03:35:42.948Z,74.40
2018-03-11T03:36:42.883Z,72.10
2018-03-11T03:37:42.824Z,74.80
2018-03-11T03:38:42.764Z,81.10
2018-03-11T03:39:42.704Z,76.80
2018-03-11T03:40:42.645Z,77.70
2018-03-11T03:41:42.585Z,72.70
2018-03-11T03:42:42.525Z,77.00
2018-03-11T03:43:42.466Z,74.70
2018-03-11T03:44:42.404Z,77.30
2018-03-11T03:45:42.345Z,73.20
2018-03-11T03:46:42.286Z,72.00
2018-03-11T03:47:42.229Z,69.60
2018-03-11T03:48:42.166Z,69.50
2018-03-11T03:49:42.107Z,71.60
2018-03-11T03:50:42.046Z,65.30
2018-03-11T03:51:41.986Z,65.50
2018-03-11T03:52:41.929Z,68.00
2018-03-11T03:53:41.865Z,65.60
2018-03-11T03:54:41.806Z,64.20
2018-03-11T03:55:41.747Z,63.70
2018-03-11T03:56:41.688Z,66.10
2018-03-11T03:57:41.625Z,64.90
2018-03-11T03:58:41.568Z,62.40
2018-03-11T03:59:41.507Z,58.50
2018-03-11T04:00:41.447Z,57.30
2018-03-11T04:01:41.388Z,59.50
2018-03-11T04:02:41.329Z,61.00
2018-03-11T04:03:41.269Z,63.00
2018-03-11T04:04:41.207Z,65.10
2018-03-11T04:05:41.151Z,63.40
2018-03-11T04:06:41.093Z,63.50
2018-03-11T04:07:41.029Z,63.30
2018-03-11T04:08:40.976Z,63.00
2018-03-11T04:09:40.911Z,65.60
2018-03-11T04:10:40.850Z,66.60
2018-03-11T04:11:40.791Z,63.80
2018-03-11T04:12:40.742Z,68.10
2018-03-11T04:13:40.670Z,66.50
2018-03-11T04:14:40.612Z,64.90
2018-03-11T04:15:40.552Z,66.00
2018-03-11T04:16:40.493Z,66.30
2018-03-11T04:17:40.436Z,65.20
2018-03-11T04:18:40.371Z,59.80
2018-03-11T04:19:40.313Z,59.80
2018-03-11T04:20:40.253Z,56.00
2018-03-11T04:21:40.193Z,57.20
2018-03-11T04:22:40.133Z,57.80
2018-03-11T04:23:40.073Z,58.30
2018-03-11T04:24:40.014Z,56.90
2018-03-11T04:25:39.952Z,56.70
2018-03-11T04:26:39.894Z,57.50
2018-03-11T04:27:39.835Z,57.10
2018-03-11T04:28:39.772Z,59.30
2018-03-11T04:29:39.713Z,56.40
2018-03-11T04:30:39.653Z,54.30
2018-03-11T04:31:39.596Z,57.60
2018-03-11T04:32:39.536Z,54.40
2018-03-11T04:33:39.478Z,54.80
2018-03-11T04:34:39.413Z,56.80
2018-03-11T04:35:39.357Z,59.60
2018-03-11T04:36:39.298Z,57.30
2018-03-11T04:37:39.235Z,53.20
2018-03-11T04:38:39.174Z,54.30
2018-03-11T04:39:39.118Z,54.40
2018-03-11T04:40:39.055Z,55.10
2018-03-11T04:41:38.996Z,54.20
2018-03-11T04:42:38.936Z,55.00
2018-03-11T04:43:38.876Z,54.70
2018-03-11T04:44:38.817Z,59.50
2018-03-11T04:45:38.764Z,60.50
2018-03-11T04:46:38.698Z,61.50
2018-03-11T04:47:38.641Z,60.80
2018-03-11T04:48:38.575Z,57.50
2018-03-11T04:49:38.517Z,54.70
2018-03-11T04:50:38.457Z,56.10
2018-03-11T04:51:38.398Z,56.20
2018-03-11T04:52:38.335Z,57.80
2018-03-11T04:53:38.277Z,57.90
2018-03-11T04:54:38.216Z,58.50
2018-03-11T04:55:38.157Z,58.40
2018-03-11T04:56:38.097Z,55.20
2018-03-11T04:57:38.038Z,57.10
2018-03-11T04:58:37.980Z,59.40
2018-03-11T04:59:37.917Z,59.70
2018-03-11T05:00:37.857Z,59.30
2018-03-11T05:01:37.796Z,61.20
2018-03-11T05:02:37.739Z,66.80
2018-03-11T05:03:37.677Z,67.20
2018-03-11T05:04:37.616Z,71.20
2018-03-11T05:05:37.558Z,74.70
2018-03-11T05:06:37.498Z,86.30
2018-03-11T05:07:37.438Z,96.60
2018-03-11T05:08:37.379Z,84.80
2018-03-11T05:09:37.318Z,85.70
2018-03-11T05:10:37.257Z,83.00
2018-03-11T05:11:37.196Z,69.90
2018-03-11T05:12:37.136Z,55.60
2018-03-11T05:13:37.077Z,56.70
2018-03-11T05:14:37.017Z,56.90
2018-03-11T05:15:36.956Z,52.50
2018-03-11T05:16:36.897Z,52.70
2018-03-11T05:17:36.837Z,52.20
2018-03-11T05:18:36.779Z,49.90
2018-03-11T05:19:36.719Z,48.00
2018-03-11T05:20:36.656Z,46.40
2018-03-11T05:21:36.596Z,45.40
2018-03-11T05:22:36.540Z,44.60
2018-03-11T05:23:36.476Z,43.50
2018-03-11T05:24:36.415Z,44.70
2018-03-11T05:25:36.356Z,44.20
2018-03-11T05:26:36.296Z,44.40
2018-03-11T05:27:36.235Z,43.60
2018-03-11T05:28:36.175Z,45.00
2018-03-11T05:29:36.116Z,46.60
2018-03-11T05:30:36.058Z,45.70
2018-03-11T05:31:35.999Z,46.90
2018-03-11T05:32:35.934Z,46.00
2018-03-11T05:33:35.875Z,46.60
2018-03-11T05:34:35.814Z,46.40
2018-03-11T05:35:35.755Z,44.50
2018-03-11T05:36:35.694Z,37.10
2018-03-11T05:37:35.635Z,33.30
2018-03-11T05:38:35.575Z,34.50
2018-03-11T05:39:35.514Z,34.50
2018-03-11T05:40:35.455Z,38.10
2018-03-11T05:41:35.394Z,36.10
2018-03-11T05:42:35.343Z,35.50
2018-03-11T05:43:35.276Z,36.10
2018-03-11T05:44:35.213Z,37.70
2018-03-11T05:45:35.155Z,36.60
2018-03-11T05:46:35.093Z,37.00
2018-03-11T05:47:35.034Z,35.90
2018-03-11T05:48:34.975Z,33.30
2018-03-11T05:49:34.914Z,34.20
2018-03-11T05:50:34.854Z,31.50
2018-03-11T05:51:34.795Z,31.10
2018-03-11T05:52:34.734Z,31.80
2018-03-11T05:53:34.677Z,34.80
2018-03-11T05:54:34.613Z,33.00
2018-03-11T05:55:34.554Z,32.50
2018-03-11T05:56:34.494Z,32.20
2018-03-11T05:57:34.433Z,33.60
2018-03-11T05:58:34.372Z,35.50
2018-03-11T05:59:34.326Z,36.90
2018-03-11T06:00:34.254Z,38.50
2018-03-11T06:01:34.192Z,40.00
2018-03-11T06:02:34.131Z,42.40
2018-03-11T06:03:34.073Z,43.10
2018-03-11T06:04:34.011Z,40.90
2018-03-11T06:05:33.953Z,40.60
2018-03-11T06:06:33.895Z,40.30
2018-03-11T06:07:33.833Z,39.60
2018-03-11T06:08:33.772Z,38.10
2018-03-11T06:09:33.712Z,36.90
2018-03-11T06:10:33.715Z,36.90
2018-03-11T06:11:33.595Z,37.10
2018-03-11T06:12:33.531Z,36.80
2018-03-11T06:13:33.474Z,36.60
2018-03-11T06:14:33.411Z,36.70
2018-03-11T06:15:33.352Z,34.30
2018-03-11T06:16:33.293Z,37.70
2018-03-11T06:17:33.233Z,37.80
2018-03-11T06:18:33.173Z,37.10
2018-03-11T06:19:33.111Z,36.60
2018-03-11T06:20:33.052Z,35.60
2018-03-11T06:21:32.992Z,36.40
2018-03-11T06:22:32.931Z,37.40
2018-03-11T06:23:32.874Z,37.40
2018-03-11T06:24:32.810Z,37.90
2018-03-11T06:25:32.752Z,36.80
2018-03-11T06:26:32.732Z,37.10
2018-03-11T06:27:32.633Z,37.60
2018-03-11T06:28:32.573Z,36.60
2018-03-11T06:29:32.512Z,37.60
2018-03-11T06:30:32.451Z,37.50
2018-03-11T06:31:32.392Z,38.00
2018-03-11T06:32:32.332Z,38.60
2018-03-11T06:33:32.272Z,38.50
2018-03-11T06:34:32.215Z,38.10
2018-03-11T06:35:32.153Z,38.60
2018-03-11T06:36:32.083Z,38.30
2018-03-11T06:37:32.031Z,38.30
2018-03-11T06:38:31.971Z,39.50
2018-03-11T06:39:31.909Z,38.60
2018-03-11T06:40:31.848Z,38.30
2018-03-11T06:41:31.791Z,38.10
2018-03-11T06:42:31.733Z,39.60
2018-03-11T06:43:31.676Z,40.00
2018-03-11T06:44:31.609Z,41.90
2018-03-11T06:45:31.548Z,41.70
2018-03-11T06:46:31.490Z,42.20
2018-03-11T06:47:31.430Z,41.10
2018-03-11T06:48:31.369Z,43.50
2018-03-11T06:49:31.312Z,42.10
2018-03-11T06:50:31.248Z,41.60
2018-03-11T06:51:31.196Z,40.90
2018-03-11T06:52:31.131Z,39.00
2018-03-11T06:53:31.068Z,39.10
2018-03-11T06:54:31.012Z,38.60
2018-03-11T06:55:30.947Z,38.00
2018-03-11T06:56:30.887Z,39.40
2018-03-11T06:57:30.827Z,37.90
2018-03-11T06:58:30.766Z,37.90
2018-03-11T06:59:30.709Z,36.70
2018-03-11T07:00:30.647Z,35.60
2018-03-11T07:01:30.587Z,36.00
2018-03-11T07:02:30.530Z,35.40
2018-03-11T07:03:30.469Z,33.80
2018-03-11T07:04:30.406Z,32.40
2018-03-11T07:05:30.347Z,31.70
2018-03-11T07:06:30.289Z,29.70
2018-03-11T07:07:30.231Z,29.70
2018-03-11T07:08:30.168Z,29.10
2018-03-11T07:09:30.109Z,28.30
2018-03-11T07:10:30.050Z,28.70
2018-03-11T07:11:29.989Z,32.10
2018-03-11T07:12:29.933Z,32.70
2018-03-11T07:13:29.868Z,32.90
2018-03-11T07:14:29.813Z,36.20
2018-03-11T07:15:29.750Z,38.70
2018-03-11T07:16:29.690Z,39.50
2018-03-11T07:17:29.630Z,39.80
2018-03-11T07:18:29.571Z,40.40
2018-03-11T07:19:29.510Z,39.00
2018-03-11T07:20:29.452Z,39.80
2018-03-11T07:21:29.391Z,40.30
2018-03-11T07:22:29.331Z,39.90
2018-03-11T07:23:29.272Z,40.00
2018-03-11T07:24:29.213Z,38.90
2018-03-11T07:25:29.151Z,43.00
2018-03-11T07:26:29.091Z,39.40
2018-03-11T07:27:29.033Z,43.10
2018-03-11T07:28:28.973Z,43.50
2018-03-11T07:29:28.911Z,41.30
2018-03-11T07:30:28.851Z,42.60
2018-03-11T07:31:28.793Z,40.70
2018-03-11T07:32:28.733Z,40.80
2018-03-11T07:33:28.673Z,39.70
2018-03-11T07:34:28.614Z,39.50
2018-03-11T07:35:28.556Z,42.40
2018-03-11T07:36:28.496Z,41.90
2018-03-11T07:37:28.433Z,41.60
2018-03-11T07:38:28.373Z,43.30
2018-03-11T07:39:28.314Z,46.20
2018-03-11T07:40:28.252Z,46.60
2018-03-11T07:41:28.195Z,45.70
2018-03-11T07:42:28.137Z,45.10
2018-03-11T07:43:28.073Z,41.60
2018-03-11T07:44:28.013Z,42.30
2018-03-11T07:45:27.956Z,42.80
2018-03-11T07:46:27.893Z,42.60
2018-03-11T07:47:27.832Z,41.80
2018-03-11T07:48:27.772Z,39.40
2018-03-11T07:49:27.712Z,38.10
2018-03-11T07:50:27.655Z,38.90
2018-03-11T07:51:27.592Z,36.60
2018-03-11T07:52:27.532Z,35.60
2018-03-11T07:53:27.476Z,35.90
2018-03-11T07:54:27.454Z,30.60
2018-03-11T07:55:27.355Z,31.70
2018-03-11T07:56:27.291Z,30.20
2018-03-11T07:57:27.232Z,29.00
2018-03-11T07:58:27.173Z,28.60
2018-03-11T07:59:27.118Z,26.40
2018-03-11T08:00:27.052Z,26.40
2018-03-11T08:01:26.994Z,27.10
2018-03-11T08:02:26.935Z,25.00
2018-03-11T08:03:26.876Z,23.30
2018-03-11T08:04:26.816Z,24.90
2018-03-11T08:05:26.756Z,26.30
2018-03-11T08:06:26.697Z,27.30
2018-03-11T08:07:26.636Z,25.20
2018-03-11T08:08:26.575Z,26.50
2018-03-11T08:09:26.517Z,26.40
2018-03-11T08:10:26.457Z,27.50
2018-03-11T08:11:26.398Z,26.20
2018-03-11T08:12:26.339Z,26.40
2018-03-11T08:13:26.283Z,27.00
2018-03-11T08:14:26.228Z,26.50
2018-03-11T08:15:26.162Z,22.70
2018-03-11T08:16:26.101Z,21.80
2018-03-11T08:17:26.046Z,21.10
2018-03-11T08:18:25.985Z,19.60
2018-03-11T08:19:25.928Z,19.80
2018-03-11T08:20:25.868Z,20.20
2018-03-11T08:21:25.811Z,20.40
2018-03-11T08:22:25.750Z,21.30
2018-03-11T08:23:25.691Z,21.20
2018-03-11T08:24:25.638Z,22.10
2018-03-11T08:25:25.577Z,24.50
2018-03-11T08:26:25.515Z,23.10
2018-03-11T08:27:25.456Z,23.10
2018-03-11T08:28:25.398Z,24.00
2018-03-11T08:29:25.356Z,23.00
2018-03-11T08:30:25.282Z,21.80
2018-03-11T08:31:25.223Z,22.40
2018-03-11T08:32:25.172Z,22.70
2018-03-11T08:33:25.101Z,22.60
2018-03-11T08:34:25.046Z,21.50
2018-03-11T08:35:24.987Z,20.60
2018-03-11T08:36:24.926Z,21.20
2018-03-11T08:37:24.869Z,20.90
2018-03-11T08:38:24.809Z,22.00
2018-03-11T08:39:24.755Z,20.40
2018-03-11T08:40:24.694Z,19.00
2018-03-11T08:41:24.634Z,18.50
2018-03-11T08:42:24.583Z,17.50
2018-03-11T08:43:24.521Z,17.80
2018-03-11T08:44:24.460Z,20.00
2018-03-11T08:45:24.402Z,21.40
2018-03-11T08:46:24.345Z,22.00
2018-03-11T08:47:24.289Z,23.30
2018-03-11T08:48:24.240Z,23.00
2018-03-11T08:49:24.170Z,23.80
2018-03-11T08:50:24.108Z,23.10
2018-03-11T08:51:24.054Z,22.40
2018-03-11T08:52:23.995Z,20.70
2018-03-11T08:53:23.937Z,20.50
2018-03-11T08:54:23.878Z,21.10
2018-03-11T08:55:23.820Z,20.90
2018-03-11T08:56:23.762Z,19.70
2018-03-11T08:57:23.702Z,19.00
2018-03-11T08:58:23.646Z,18.60
2018-03-11T08:59:23.615Z,17.60
2018-03-11T09:00:23.529Z,18.10
2018-03-11T09:01:23.469Z,16.60
2018-03-11T09:02:23.412Z,17.70
2018-03-11T09:03:23.358Z,17.50
2018-03-11T09:04:23.297Z,16.80
2018-03-11T09:05:23.240Z,17.10
2018-03-11T09:06:23.182Z,16.60
2018-03-11T09:07:23.124Z,16.30
2018-03-11T09:08:23.064Z,17.40
2018-03-11T09:09:23.007Z,18.10
2018-03-11T09:10:22.979Z,18.90
2018-03-11T09:11:22.890Z,16.00
2018-03-11T09:12:22.835Z,17.50
2018-03-11T09:13:22.775Z,17.10
2018-03-11T09:14:22.717Z,17.00
2018-03-11T09:15:22.659Z,15.60
2018-03-11T09:16:22.602Z,16.00
2018-03-11T09:17:22.544Z,15.90
2018-03-11T09:18:22.486Z,14.70
2018-03-11T09:19:22.430Z,14.40
2018-03-11T09:20:22.376Z,14.90
2018-03-11T09:21:22.317Z,15.80
2018-03-11T09:22:22.257Z,16.50
2018-03-11T09:23:22.203Z,16.50
2018-03-11T09:24:22.142Z,16.10
2018-03-11T09:25:22.088Z,15.70
2018-03-11T09:26:22.029Z,16.60
2018-03-11T09:27:21.973Z,15.00
2018-03-11T09:28:21.913Z,15.50
2018-03-11T09:29:21.858Z,14.30
2018-03-11T09:30:21.804Z,15.10
2018-03-11T09:31:21.746Z,15.50
2018-03-11T09:32:21.684Z,15.10
2018-03-11T09:33:21.626Z,16.00
2018-03-11T09:34:21.573Z,16.50
2018-03-11T09:35:21.529Z,16.60
2018-03-11T09:36:21.454Z,16.80
2018-03-11T09:37:21.408Z,16.30
2018-03-11T09:38:21.346Z,16.90
2018-03-11T09:39:21.287Z,16.90
2018-03-11T09:40:21.228Z,17.20
2018-03-11T09:41:21.170Z,18.30
2018-03-11T09:42:21.117Z,17.50
2018-03-11T09:43:21.066Z,17.40
2018-03-11T09:44:21.000Z,19.30
2018-03-11T09:45:20.949Z,18.50
2018-03-11T09:46:20.888Z,17.50
2018-03-11T09:47:20.837Z,18.40
2018-03-11T09:48:20.775Z,18.90
2018-03-11T09:49:20.717Z,18.20
2018-03-11T09:50:20.659Z,18.60
2018-03-11T09:51:20.603Z,18.50
2018-03-11T09:52:20.545Z,17.90
2018-03-11T09:53:20.493Z,17.70
2018-03-11T09:54:20.432Z,17.80
2018-03-11T09:55:20.411Z,18.30
2018-03-11T09:56:20.329Z,18.10
2018-03-11T09:57:20.264Z,17.80
2018-03-11T09:58:20.204Z,18.40
2018-03-11T09:59:20.147Z,18.30
2018-03-11T10:00:20.087Z,17.80
2018-03-11T10:01:20.038Z,16.20
2018-03-11T10:02:19.979Z,16.50
2018-03-11T10:03:19.922Z,16.70
2018-03-11T10:04:19.870Z,17.30
2018-03-11T10:05:19.806Z,18.30
2018-03-11T10:06:19.753Z,17.00
2018-03-11T10:07:19.696Z,17.50
2018-03-11T10:08:19.642Z,17.20
2018-03-11T10:09:19.584Z,16.80
2018-03-11T10:10:19.526Z,17.20
2018-03-11T10:11:19.474Z,17.40
2018-03-11T10:12:19.414Z,18.10
2018-03-11T10:13:19.356Z,17.20
2018-03-11T10:14:19.302Z,17.20
2018-03-11T10:15:19.246Z,18.30
2018-03-11T10:16:19.307Z,17.80
2018-03-11T10:17:19.131Z,17.90
2018-03-11T10:18:19.076Z,17.50
2018-03-11T10:19:19.021Z,17.20
2018-03-11T10:20:18.964Z,17.80
2018-03-11T10:21:18.905Z,18.30
2018-03-11T10:22:18.850Z,18.80
2018-03-11T10:23:18.799Z,17.80
2018-03-11T10:24:18.743Z,18.10
2018-03-11T10:25:18.681Z,17.60
2018-03-11T10:26:18.625Z,18.30
2018-03-11T10:27:18.570Z,18.00
2018-03-11T10:28:18.514Z,18.50
2018-03-11T10:29:18.461Z,18.50
2018-03-11T10:30:18.401Z,18.80
2018-03-11T10:31:18.346Z,18.70
2018-03-11T10:32:18.289Z,18.40
2018-03-11T10:33:18.233Z,17.70
2018-03-11T10:34:18.180Z,18.80
2018-03-11T10:35:18.120Z,17.50
2018-03-11T10:36:18.063Z,18.10
2018-03-11T10:37:18.010Z,18.80
2018-03-11T10:38:17.954Z,18.30
2018-03-11T10:39:17.900Z,18.70
2018-03-11T10:40:17.840Z,18.60
2018-03-11T10:41:17.785Z,18.90
2018-03-11T10:42:17.731Z,18.60
2018-03-11T10:43:17.676Z,18.70
2018-03-11T10:44:17.618Z,18.70
2018-03-11T10:45:17.562Z,18.50
2018-03-11T10:46:17.505Z,18.50
2018-03-11T10:47:17.448Z,18.40
2018-03-11T10:48:17.395Z,19.20
2018-03-11T10:49:17.338Z,19.70
2018-03-11T10:50:17.282Z,18.60
2018-03-11T10:51:17.228Z,18.90
2018-03-11T10:52:17.169Z,18.30
2018-03-11T10:53:17.114Z,18.20
2018-03-11T10:54:17.059Z,18.20
2018-03-11T10:55:17.002Z,18.30
2018-03-11T10:56:16.947Z,17.00
2018-03-11T10:57:16.891Z,16.50
2018-03-11T10:58:16.835Z,17.20
2018-03-11T10:59:16.780Z,17.00
2018-03-11T11:00:16.721Z,17.50
2018-03-11T11:01:16.666Z,16.80
2018-03-11T11:02:16.614Z,17.00
2018-03-11T11:03:16.554Z,16.40
2018-03-11T11:04:16.497Z,15.70
2018-03-11T11:05:16.443Z,15.20
2018-03-11T11:06:16.385Z,15.60
2018-03-11T11:07:16.331Z,17.10
2018-03-11T11:08:16.279Z,16.40
2018-03-11T11:09:16.218Z,16.40
2018-03-11T11:10:16.164Z,15.10
2018-03-11T11:11:16.107Z,15.00
2018-03-11T11:12:16.051Z,15.40
2018-03-11T11:13:15.993Z,16.10
2018-03-11T11:14:15.937Z,15.00
2018-03-11T11:15:15.883Z,16.20
2018-03-11T11:16:15.824Z,15.70
2018-03-11T11:17:15.768Z,15.50
2018-03-11T11:18:15.712Z,16.00
2018-03-11T11:19:15.671Z,15.40
2018-03-11T11:20:15.601Z,15.80
2018-03-11T11:21:15.548Z,16.50
2018-03-11T11:22:15.486Z,16.90
2018-03-11T11:23:15.432Z,15.60
2018-03-11T11:24:15.377Z,15.70
2018-03-11T11:25:15.319Z,16.90
2018-03-11T11:26:15.263Z,15.00
2018-03-11T11:27:15.212Z,14.90
2018-03-11T11:28:15.154Z,14.80
2018-03-11T11:29:15.099Z,14.30
2018-03-11T11:30:15.043Z,14.80
2018-03-11T11:31:15.036Z,15.30
2018-03-11T11:32:14.927Z,17.10
2018-03-11T11:33:14.871Z,15.50
2018-03-11T11:34:14.814Z,15.30
2018-03-11T11:35:14.760Z,15.30
2018-03-11T11:36:14.704Z,15.20
2018-03-11T11:37:14.646Z,16.50
2018-03-11T11:38:14.592Z,16.10
2018-03-11T11:39:14.539Z,16.60
2018-03-11T11:40:14.480Z,14.30
2018-03-11T11:41:14.424Z,15.30
2018-03-11T11:42:14.370Z,14.20
2018-03-11T11:43:14.312Z,14.60
2018-03-11T11:44:14.256Z,15.20
2018-03-11T11:45:14.201Z,14.90
2018-03-11T11:46:14.143Z,15.50
2018-03-11T11:47:14.088Z,15.30
2018-03-11T11:48:14.034Z,15.00
2018-03-11T11:49:13.976Z,15.30
2018-03-11T11:50:13.920Z,14.70
2018-03-11T11:51:13.866Z,15.10
2018-03-11T11:52:13.808Z,13.60
2018-03-11T11:53:13.753Z,14.70
2018-03-11T11:54:13.701Z,15.90
2018-03-11T11:55:13.668Z,14.80
2018-03-11T11:56:13.592Z,14.90
2018-03-11T11:57:13.528Z,15.00
2018-03-11T11:58:13.473Z,14.50
2018-03-11T11:59:13.420Z,15.30
2018-03-11T12:00:13.361Z,15.20
2018-03-11T12:01:13.307Z,15.10
2018-03-11T12:02:13.251Z,14.10
2018-03-11T12:03:13.195Z,14.00
2018-03-11T12:04:13.135Z,14.70
2018-03-11T12:05:13.079Z,14.50
2018-03-11T12:06:13.026Z,14.80
2018-03-11T12:07:12.968Z,16.20
2018-03-11T12:08:12.913Z,16.80
2018-03-11T12:09:12.858Z,15.70
2018-03-11T12:10:12.801Z,15.40
2018-03-11T12:11:12.743Z,15.60
2018-03-11T12:12:12.701Z,16.00
2018-03-11T12:13:12.633Z,15.60
2018-03-11T12:14:12.577Z,14.30
2018-03-11T12:15:12.522Z,15.40
2018-03-11T12:16:12.465Z,15.30
2018-03-11T12:17:12.407Z,14.80
2018-03-11T12:18:12.352Z,15.00
2018-03-11T12:19:12.339Z,15.50
2018-03-11T12:20:12.242Z,15.50
2018-03-11T12:21:12.185Z,16.40
2018-03-11T12:22:12.129Z,16.60
2018-03-11T12:23:12.073Z,16.10
2018-03-11T12:24:12.018Z,17.00
2018-03-11T12:25:11.963Z,17.50
2018-03-11T12:26:11.905Z,18.10
2018-03-11T12:27:11.852Z,18.30
2018-03-11T12:28:11.793Z,17.70
2018-03-11T12:29:11.736Z,17.20
2018-03-11T12:30:11.681Z,17.70
2018-03-11T12:31:11.627Z,17.20
2018-03-11T12:32:11.568Z,17.50
2018-03-11T12:33:11.511Z,16.90
2018-03-11T12:34:11.456Z,16.40
2018-03-11T12:35:11.451Z,17.70
2018-03-11T12:36:11.343Z,17.90
2018-03-11T12:37:11.287Z,18.90
2018-03-11T12:38:11.232Z,18.20
2018-03-11T12:39:11.174Z,18.90
2018-03-11T12:40:11.119Z,18.60
2018-03-11T12:41:11.065Z,19.20
2018-03-11T12:42:11.005Z,17.70
2018-03-11T12:43:10.950Z,19.10
2018-03-11T12:44:10.893Z,19.60
2018-03-11T12:45:10.843Z,20.00
2018-03-11T12:46:10.781Z,19.70
2018-03-11T12:47:10.731Z,19.00
2018-03-11T12:48:10.669Z,18.20
2018-03-11T12:49:10.613Z,18.90
2018-03-11T12:50:10.555Z,18.60
2018-03-11T12:51:10.499Z,19.00
2018-03-11T12:52:10.441Z,18.90